Time;durP1;ratioP1;P1;durP2;ratioP2;P2;SDS_P1;SDS_P2;PMS_P1;PMS_P2;Temp;Humidity;BMP_temperature;BMP_pressure;BME280_temperature;BME280_humidity;BME280_pressure;Samples;Min_cycle;Max_cycle;Signal;HPM_P1;HPM_P2
2022/07/17 00:00:56;;;;;;;6.47;2.20;;;;;;;15.07;79.18;102896.88;4985132;28;20029;-69
2022/07/17 00:03:21;;;;;;;5.82;2.28;;;;;;;15.04;79.05;102888.97;4985693;28;20042;-68
2022/07/17 00:05:47;;;;;;;7.55;2.20;;;;;;;15.05;79.38;102882.75;4985731;28;20473;-68
2022/07/17 00:08:12;;;;;;;5.72;2.28;;;;;;;15.08;79.22;102880.03;4985824;28;20374;-67
2022/07/17 00:10:40;;;;;;;6.55;2.65;;;;;;;15.06;78.89;102879.22;4983673;28;20031;-68
2022/07/17 00:13:06;;;;;;;9.93;2.85;;;;;;;15.07;79.03;102878.28;4985764;28;20049;-68
2022/07/17 00:15:31;;;;;;;8.90;2.67;;;;;;;15.08;79.00;102884.50;4983508;28;20484;-69
2022/07/17 00:17:57;;;;;;;3.05;1.95;;;;;;;15.09;79.19;102884.47;4986071;28;20060;-68
2022/07/17 00:20:24;;;;;;;4.05;2.20;;;;;;;15.11;79.18;102889.75;4985548;28;20473;-67
2022/07/17 00:22:51;;;;;;;6.50;2.55;;;;;;;15.10;79.38;102882.66;4985941;28;20115;-68
2022/07/17 00:25:16;;;;;;;7.28;2.35;;;;;;;15.09;79.33;102876.50;4983930;28;20660;-67
2022/07/17 00:27:41;;;;;;;7.72;2.45;;;;;;;15.14;80.67;102876.41;4984874;28;20185;-68
2022/07/17 00:30:07;;;;;;;7.43;2.20;;;;;;;15.14;80.23;102874.59;4985085;28;20441;-69
2022/07/17 00:32:33;;;;;;;5.25;2.50;;;;;;;15.13;80.32;102871.97;4985952;28;20031;-69
2022/07/17 00:34:58;;;;;;;7.57;2.63;;;;;;;15.09;80.66;102876.50;4985775;28;20503;-69
2022/07/17 00:37:23;;;;;;;7.78;2.47;;;;;;;15.08;80.93;102880.03;4985307;28;20469;-68
2022/07/17 00:39:49;;;;;;;9.70;2.60;;;;;;;15.07;80.72;102880.06;4985188;28;20473;-68
2022/07/17 00:42:15;;;;;;;8.02;2.58;;;;;;;15.03;81.14;102876.63;4983293;28;20027;-69
2022/07/17 00:44:42;;;;;;;4.65;2.40;;;;;;;15.03;81.30;102868.66;4984463;28;20101;-68
2022/07/17 00:47:19;;;;;;;5.22;2.25;;;;;;;15.02;81.39;102866.91;4984593;28;20772;-68
2022/07/17 00:49:45;;;;;;;8.68;2.72;;;;;;;15.03;82.10;102866.00;4985385;28;20022;-68
2022/07/17 00:52:12;;;;;;;4.80;2.45;;;;;;;15.06;81.71;102871.25;4985400;28;20076;-68
2022/07/17 00:54:39;;;;;;;7.00;2.72;;;;;;;15.05;82.11;102869.47;4984766;28;20015;-67
2022/07/17 00:57:09;;;;;;;7.47;3.00;;;;;;;15.03;82.44;102866.84;4984776;28;20229;-67
2022/07/17 00:59:34;;;;;;;7.95;2.90;;;;;;;15.00;82.35;102864.28;4985038;28;20023;-67
2022/07/17 01:02:03;;;;;;;7.70;3.00;;;;;;;15.02;82.69;102858.94;4983627;28;20105;-68
2022/07/17 01:04:29;;;;;;;9.23;3.08;;;;;;;15.03;83.10;102852.72;4984487;28;20114;-68
2022/07/17 01:06:54;;;;;;;11.07;3.42;;;;;;;15.06;83.49;102844.69;4984871;28;20042;-69
2022/07/17 01:09:19;;;;;;;8.07;2.97;;;;;;;15.10;83.36;102835.75;4983294;28;20031;-67
2022/07/17 01:11:45;;;;;;;8.40;3.33;;;;;;;15.15;83.00;102833.84;4983865;28;20092;-68
2022/07/17 01:14:10;;;;;;;9.57;3.47;;;;;;;15.16;82.66;102834.75;4983742;28;20118;-67
2022/07/17 01:16:36;;;;;;;8.98;3.00;;;;;;;15.19;82.69;102831.13;4983066;28;20027;-68
2022/07/17 01:19:01;;;;;;;7.72;3.20;;;;;;;15.16;82.58;102832.97;4983481;28;20113;-68
2022/07/17 01:21:44;;;;;;;10.00;3.40;;;;;;;15.13;82.56;102833.03;4983794;28;20520;-68
2022/07/17 01:24:09;;;;;;;7.00;3.50;;;;;;;15.11;82.51;102848.09;4983323;28;20129;-68
2022/07/17 01:26:35;;;;;;;7.20;3.33;;;;;;;15.10;82.31;102843.72;4984361;28;20030;-69
2022/07/17 01:29:00;;;;;;;8.70;3.13;;;;;;;15.10;82.36;102841.06;4985111;28;20029;-68
2022/07/17 01:31:25;;;;;;;7.70;3.40;;;;;;;15.09;82.00;102849.06;4984929;28;20042;-67
2022/07/17 01:33:51;;;;;;;8.90;3.00;;;;;;;15.04;82.40;102843.84;4985287;28;20022;-68
2022/07/17 01:36:22;;;;;;;5.20;2.88;;;;;;;15.04;82.47;102843.84;4986868;28;20461;-69
2022/07/17 01:38:48;;;;;;;9.65;3.58;;;;;;;15.04;82.36;102843.84;4986539;28;20118;-67
2022/07/17 01:41:14;;;;;;;5.18;2.63;;;;;;;15.04;81.72;102838.53;4988498;28;20389;-68
2022/07/17 01:43:39;;;;;;;7.07;2.92;;;;;;;15.00;81.98;102834.19;4987820;28;20025;-67
2022/07/17 01:46:04;;;;;;;7.43;2.85;;;;;;;15.01;82.02;102835.94;4988947;28;20032;-68
2022/07/17 01:48:30;;;;;;;7.00;2.88;;;;;;;15.03;81.66;102827.03;4986966;28;20018;-67
2022/07/17 01:50:55;;;;;;;4.50;2.47;;;;;;;15.05;81.47;102831.44;4988299;28;20030;-68
2022/07/17 01:53:21;;;;;;;5.72;2.33;;;;;;;15.02;81.37;102835.06;4988364;28;20022;-68
2022/07/17 01:55:47;;;;;;;6.00;2.28;;;;;;;15.03;81.15;102839.44;4986881;28;20041;-68
2022/07/17 01:58:13;;;;;;;8.75;2.63;;;;;;;14.99;81.03;102841.28;4987542;28;20018;-68
2022/07/17 02:00:39;;;;;;;8.77;2.65;;;;;;;14.96;81.18;102841.34;4987960;28;20038;-67
2022/07/17 02:03:04;;;;;;;6.45;2.42;;;;;;;14.94;81.42;102847.59;4988260;28;20405;-68
2022/07/17 02:05:29;;;;;;;5.18;2.38;;;;;;;14.90;81.76;102847.66;4986821;28;20156;-68
2022/07/17 02:07:55;;;;;;;7.45;2.58;;;;;;;14.86;81.69;102845.97;4970790;28;20064;-69
2022/07/17 02:10:20;;;;;;;9.45;2.80;;;;;;;14.85;81.69;102851.31;4985116;28;20026;-68
2022/07/17 02:12:46;;;;;;;5.80;2.60;;;;;;;14.79;82.01;102847.00;4988358;28;20031;-68
2022/07/17 02:15:12;;;;;;;8.48;2.80;;;;;;;14.77;82.28;102835.50;4987873;28;20109;-69
2022/07/17 02:17:39;;;;;;;4.75;2.33;;;;;;;14.78;82.29;102840.81;4988162;28;20035;-68
2022/07/17 02:20:06;;;;;;;6.70;2.58;;;;;;;14.77;82.90;102835.50;4987655;28;20034;-67
2022/07/17 02:22:31;;;;;;;8.68;2.78;;;;;;;14.77;82.91;102832.84;4987931;28;20256;-68
2022/07/17 02:24:56;;;;;;;6.32;2.53;;;;;;;14.78;83.11;102829.34;4986895;28;20109;-68
2022/07/17 02:27:22;;;;;;;7.15;3.17;;;;;;;14.79;83.20;102828.44;4986113;28;20018;-67
2022/07/17 02:29:47;;;;;;;11.93;3.40;;;;;;;14.81;83.65;102834.56;4987958;28;20049;-67
2022/07/17 02:32:12;;;;;;;7.72;2.90;;;;;;;14.82;83.31;102835.44;4987639;28;20030;-67
2022/07/17 02:34:38;;;;;;;4.90;3.03;;;;;;;14.80;83.21;102842.53;4983377;28;20034;-67
2022/07/17 02:37:03;;;;;;;9.25;3.10;;;;;;;14.77;83.24;102843.47;4981493;28;20569;-69
2022/07/17 02:39:28;;;;;;;6.00;2.92;;;;;;;14.73;83.44;102852.38;4985156;28;20018;-67
2022/07/17 02:41:54;;;;;;;10.73;2.92;;;;;;;14.70;83.27;102857.75;4986656;28;20089;-68
2022/07/17 02:44:19;;;;;;;5.35;2.90;;;;;;;14.66;83.72;102860.47;4986072;28;20058;-68
2022/07/17 02:46:44;;;;;;;6.38;2.80;;;;;;;14.64;83.84;102854.31;4986250;28;20105;-67
2022/07/17 02:49:10;;;;;;;8.38;3.38;;;;;;;14.63;83.98;102855.22;4986594;28;20026;-68
2022/07/17 02:51:35;;;;;;;6.90;3.08;;;;;;;14.61;84.04;102861.47;4986164;28;20030;-68
2022/07/17 02:54:01;;;;;;;4.85;2.90;;;;;;;14.58;83.96;102870.34;4986818;28;20432;-68
2022/07/17 02:56:26;;;;;;;6.50;3.00;;;;;;;14.48;83.88;102874.06;4985976;28;20084;-68
2022/07/17 02:58:51;;;;;;;3.95;2.55;;;;;;;14.42;83.97;102879.50;4986911;28;20097;-67
2022/07/17 03:01:17;;;;;;;4.68;2.70;;;;;;;14.36;83.92;102870.72;4985864;28;20041;-68
2022/07/17 03:03:42;;;;;;;6.85;2.58;;;;;;;14.34;83.91;102883.16;4987068;28;20531;-68
2022/07/17 03:06:08;;;;;;;3.70;2.45;;;;;;;14.25;83.96;102878.88;4987225;28;20026;-67
2022/07/17 03:08:33;;;;;;;4.43;2.65;;;;;;;14.22;84.10;102878.03;4985532;28;20492;-68
2022/07/17 03:10:58;;;;;;;7.43;2.83;;;;;;;14.15;84.43;102867.53;4987087;28;20030;-68
2022/07/17 03:13:24;;;;;;;7.32;3.00;;;;;;;14.13;84.53;102872.00;4986113;28;20034;-68
2022/07/17 03:15:49;;;;;;;3.78;2.55;;;;;;;14.11;84.37;102871.16;4987227;28;20068;-67
2022/07/17 03:18:15;;;;;;;6.07;2.95;;;;;;;14.08;84.46;102870.31;4985853;28;20508;-68
2022/07/17 03:20:40;;;;;;;5.78;3.08;;;;;;;14.03;84.76;102868.59;4987132;28;20207;-66
2022/07/17 03:23:05;;;;;;;6.60;3.55;;;;;;;14.01;84.77;102874.84;4986037;28;20018;-68
2022/07/17 03:25:31;;;;;;;5.40;2.90;;;;;;;13.97;84.93;102876.66;4985474;28;20105;-68
2022/07/17 03:27:56;;;;;;;5.53;2.58;;;;;;;13.95;84.86;102881.13;4986747;28;20299;-68
2022/07/17 03:30:22;;;;;;;9.88;3.38;;;;;;;13.92;85.06;102883.81;4985554;28;20031;-67
2022/07/17 03:32:47;;;;;;;7.40;3.20;;;;;;;13.93;85.46;102874.09;4986564;28;20030;-69
2022/07/17 03:35:12;;;;;;;5.40;3.28;;;;;;;13.95;85.68;102877.59;4986160;28;20041;-69
2022/07/17 03:37:38;;;;;;;5.72;3.35;;;;;;;13.90;85.68;102875.88;4986688;28;20037;-66
2022/07/17 03:40:07;;;;;;;6.45;3.03;;;;;;;13.92;85.65;102877.63;4986084;28;20129;-69
2022/07/17 03:42:33;;;;;;;;;;;;;;;13.89;85.68;102871.50;4986141;28;20026;-68
2022/07/17 03:44:58;;;;;;;8.20;2.88;;;;;;;13.93;85.50;102869.66;4986406;28;19918;-67
2022/07/17 03:47:23;;;;;;;7.65;3.15;;;;;;;13.97;85.74;102867.84;4983789;28;20089;-67
2022/07/17 03:49:49;;;;;;;6.85;3.30;;;;;;;14.02;85.95;102871.28;4985578;28;20034;-67
2022/07/17 03:52:14;;;;;;;8.20;3.53;;;;;;;14.07;85.74;102876.50;4985294;28;20041;-70
2022/07/17 03:54:40;;;;;;;10.15;3.20;;;;;;;14.10;85.74;102866.75;4985869;28;20014;-67
2022/07/17 03:57:05;;;;;;;7.15;3.00;;;;;;;14.18;86.11;102857.78;4986472;28;20029;-68
2022/07/17 03:59:30;;;;;;;4.63;3.25;;;;;;;14.24;85.80;102860.34;4985809;28;20045;-68
2022/07/17 04:01:56;;;;;;;7.25;2.95;;;;;;;14.27;85.61;102865.59;4985844;28;20049;-68
2022/07/17 04:04:21;;;;;;;5.72;3.25;;;;;;;14.26;85.55;102870.00;4984081;28;20026;-68
2022/07/17 04:06:47;;;;;;;7.75;3.30;;;;;;;14.29;85.66;102863.78;4985296;28;20037;-68
2022/07/17 04:09:12;;;;;;;9.43;3.58;;;;;;;14.32;85.68;102869.03;4983846;28;20042;-67
2022/07/17 04:11:37;;;;;;;6.35;3.58;;;;;;;14.35;85.80;102879.59;4985677;28;20381;-66
2022/07/17 04:14:03;;;;;;;5.25;3.40;;;;;;;14.36;85.85;102875.16;4986223;28;20477;-67
2022/07/17 04:16:28;;;;;;;13.68;3.70;;;;;;;14.38;86.16;102884.84;4985065;28;20030;-68
2022/07/17 04:18:53;;;;;;;9.20;3.83;;;;;;;14.37;85.73;102892.81;4985911;28;20501;-68
2022/07/17 04:21:19;;;;;;;8.13;3.42;;;;;;;14.38;85.79;102890.16;4985016;28;20030;-69
2022/07/17 04:23:44;;;;;;;10.75;3.50;;;;;;;14.44;86.10;102885.63;4985442;28;20026;-69
2022/07/17 04:26:09;;;;;;;10.95;3.63;;;;;;;14.48;86.15;102890.00;4985511;28;20027;-67
2022/07/17 04:28:35;;;;;;;6.13;3.63;;;;;;;14.53;85.79;102885.47;4985138;28;20041;-69
2022/07/17 04:31:01;;;;;;;5.22;3.55;;;;;;;14.56;85.76;102888.06;5002892;28;20122;-69
2022/07/17 04:33:27;;;;;;;7.10;3.85;;;;;;;14.62;85.53;102890.63;5003981;28;20037;-70
2022/07/17 04:35:52;;;;;;;7.20;3.40;;;;;;;14.66;85.52;102884.34;5005287;28;20022;-68
2022/07/17 04:38:17;;;;;;;7.50;3.50;;;;;;;14.72;85.93;102895.75;5004385;28;20053;-67
2022/07/17 04:40:43;;;;;;;6.85;3.40;;;;;;;14.77;85.93;102889.47;5005164;28;20471;-67
2022/07/17 04:43:08;;;;;;;7.45;3.70;;;;;;;14.85;85.68;102878.72;5000255;28;20085;-68
2022/07/17 04:45:34;;;;;;;10.30;3.60;;;;;;;14.89;85.79;102869.81;4983922;28;20034;-68
2022/07/17 04:47:59;;;;;;;11.43;3.92;;;;;;;14.96;85.26;102875.84;4985226;28;20027;-68
2022/07/17 04:50:25;;;;;;;8.13;3.10;;;;;;;15.07;84.69;102867.69;4984165;28;20541;-62
2022/07/17 04:52:50;;;;;;;6.75;3.00;;;;;;;15.08;84.48;102866.75;4983309;28;20318;-62
2022/07/17 04:55:16;;;;;;;6.20;2.83;;;;;;;15.13;84.40;102878.16;4984632;28;20085;-62
2022/07/17 04:57:41;;;;;;;6.32;2.35;;;;;;;15.19;83.97;102882.47;4985439;28;20029;-62
2022/07/17 05:00:08;;;;;;;4.45;2.13;;;;;;;15.27;83.50;102874.34;4985478;28;20046;-63
2022/07/17 05:02:33;;;;;;;4.82;1.90;;;;;;;15.32;82.80;102874.25;4984336;28;20546;-62
2022/07/17 05:04:59;;;;;;;7.88;2.00;;;;;;;15.41;81.95;102866.06;4983091;28;20105;-62
2022/07/17 05:07:24;;;;;;;7.13;2.30;;;;;;;15.50;80.65;102865.03;4984610;28;20026;-64
2022/07/17 05:09:50;;;;;;;6.53;1.77;;;;;;;15.57;79.71;102865.75;4983496;28;20046;-61
2022/07/17 05:12:15;;;;;;;8.75;1.92;;;;;;;15.65;78.97;102874.41;4989336;28;20097;-61
2022/07/17 05:14:41;;;;;;;5.55;1.50;;;;;;;15.71;77.06;102884.03;4989281;28;20028;-63
2022/07/17 05:17:06;;;;;;;6.80;1.30;;;;;;;15.74;76.60;102876.84;4979519;28;20040;-62
2022/07/17 05:19:32;;;;;;;6.10;1.60;;;;;;;15.78;76.32;102869.69;4988333;28;20014;-62
2022/07/17 05:21:57;;;;;;;4.60;1.65;;;;;;;15.81;76.21;102874.06;4988762;28;20450;-62
2022/07/17 05:24:22;;;;;;;5.57;1.40;;;;;;;15.81;75.79;102866.06;4987445;28;20435;-63
2022/07/17 05:26:48;;;;;;;4.57;1.38;;;;;;;15.84;75.38;102874.88;4989143;28;20022;-62
2022/07/17 05:29:13;;;;;;;7.20;1.73;;;;;;;15.83;75.84;102881.06;4988355;28;20128;-62
2022/07/17 05:31:38;;;;;;;6.50;1.70;;;;;;;15.83;76.09;102878.41;4987935;28;20042;-62
2022/07/17 05:34:03;;;;;;;5.72;1.58;;;;;;;15.82;76.05;102881.09;4988779;28;20034;-62
2022/07/17 05:36:29;;;;;;;5.00;1.70;;;;;;;15.87;76.28;102890.72;4986851;28;20018;-61
2022/07/17 05:38:54;;;;;;;5.28;1.30;;;;;;;15.90;75.50;102890.66;4987095;28;20032;-63
2022/07/17 05:41:20;;;;;;;7.15;2.40;;;;;;;15.97;74.86;102891.41;4988078;28;20464;-62
2022/07/17 05:43:45;;;;;;;6.10;1.77;;;;;;;16.04;74.35;102884.16;4988218;28;20030;-62
2022/07/17 05:46:10;;;;;;;9.88;1.60;;;;;;;16.17;74.06;102884.75;4987855;28;20026;-62
2022/07/17 05:48:36;;;;;;;6.68;1.52;;;;;;;16.26;73.78;102887.16;4988326;28;20022;-62
2022/07/17 05:51:01;;;;;;;5.78;1.70;;;;;;;16.38;73.10;102888.63;4987621;28;20254;-61
2022/07/17 05:53:26;;;;;;;7.25;1.20;;;;;;;16.53;72.63;102891.81;4985314;28;20457;-64
2022/07/17 05:55:52;;;;;;;7.15;2.03;;;;;;;16.68;71.13;102880.75;4988195;28;20049;-62
2022/07/17 05:58:17;;;;;;;4.45;1.33;;;;;;;16.73;69.58;102890.38;4987757;28;20037;-61
2022/07/17 06:00:44;;;;;;;5.05;1.67;;;;;;;16.83;69.77;102899.91;4987157;28;20098;-62
2022/07/17 06:03:09;;;;;;;3.72;1.20;;;;;;;16.91;68.95;102900.53;4987540;28;20049;-61
2022/07/17 06:05:35;;;;;;;6.00;1.33;;;;;;;17.02;67.86;102910.00;4987622;28;20467;-62
2022/07/17 06:08:00;;;;;;;7.60;1.15;;;;;;;17.14;67.95;102911.50;4985484;28;20334;-63
2022/07/17 06:10:26;;;;;;;5.57;1.30;;;;;;;17.14;67.51;102903.50;4987292;28;20022;-64
2022/07/17 06:12:56;;;;;;;5.40;1.27;;;;;;;17.29;67.03;102904.84;4987121;28;20023;-63
2022/07/17 06:15:21;;;;;;;8.95;1.80;;;;;;;17.27;66.51;102912.00;4986907;28;20048;-61
2022/07/17 06:17:47;;;;;;;8.77;1.42;;;;;;;17.27;66.61;102918.22;4987390;28;20097;-61
2022/07/17 06:20:13;;;;;;;8.65;1.73;;;;;;;17.35;66.38;102920.66;4987308;28;20479;-62
2022/07/17 06:22:39;;;;;;;5.55;1.40;;;;;;;17.38;65.74;102925.91;4987049;28;20030;-61
2022/07/17 06:25:05;;;;;;;7.20;1.27;;;;;;;17.49;65.18;102928.22;4987225;28;20019;-61
2022/07/17 06:27:31;;;;;;;5.13;1.38;;;;;;;17.55;65.00;102928.03;4987519;28;20428;-66
2022/07/17 06:29:56;;;;;;;5.95;1.75;;;;;;;17.65;64.34;102920.66;4986043;28;20050;-63
2022/07/17 06:32:21;;;;;;;10.18;1.48;;;;;;;17.74;64.38;102926.59;4987357;28;20034;-62
2022/07/17 06:34:47;;;;;;;10.07;1.50;;;;;;;17.76;63.69;102924.78;4987014;28;20045;-63
2022/07/17 06:37:12;;;;;;;8.88;1.63;;;;;;;17.84;64.11;102925.41;4986896;28;20022;-62
2022/07/17 06:39:37;;;;;;;3.92;1.40;;;;;;;17.88;63.98;102927.03;4986114;28;20489;-62
2022/07/17 06:42:03;;;;;;;3.65;0.90;;;;;;;17.93;63.43;102930.44;4987082;28;20014;-62
2022/07/17 06:44:28;;;;;;;3.10;0.95;;;;;;;18.03;63.48;102939.00;4986939;28;20077;-62
2022/07/17 06:46:54;;;;;;;5.05;1.30;;;;;;;18.09;63.72;102935.25;4986876;28;20489;-62
2022/07/17 06:49:19;;;;;;;8.55;1.67;;;;;;;18.03;64.15;102939.00;4986840;28;20041;-62
2022/07/17 06:51:45;;;;;;;4.60;1.10;;;;;;;18.16;63.55;102939.53;4986902;28;20532;-64
2022/07/17 06:54:12;;;;;;;9.30;1.30;;;;;;;18.25;63.42;102930.34;4985549;28;20881;-66
2022/07/17 06:56:37;;;;;;;7.80;1.30;;;;;;;18.52;63.02;102932.13;4986895;28;20053;-61
2022/07/17 06:59:03;;;;;;;5.25;0.98;;;;;;;18.41;62.97;102936.03;4987362;28;20027;-62
2022/07/17 07:01:28;;;;;;;6.22;1.40;;;;;;;18.28;63.49;102934.72;4986165;28;20496;-64
2022/07/17 07:03:53;;;;;;;4.32;1.10;;;;;;;18.34;63.80;102934.50;4987283;28;20487;-62
2022/07/17 07:06:19;;;;;;;4.88;1.10;;;;;;;18.43;63.03;102939.50;4986338;28;20033;-60
2022/07/17 07:08:44;;;;;;;3.28;1.30;;;;;;;18.54;63.29;102941.81;4986038;28;20030;-61
2022/07/17 07:11:09;;;;;;;4.72;1.10;;;;;;;18.70;63.51;102938.63;4986287;28;20034;-61
2022/07/17 07:13:35;;;;;;;8.27;1.80;;;;;;;18.69;63.26;102945.75;4986747;28;20031;-62
2022/07/17 07:16:00;;;;;;;3.72;1.02;;;;;;;18.78;62.39;102949.91;4986351;28;20033;-61
2022/07/17 07:18:25;;;;;;;8.70;1.40;;;;;;;18.97;61.80;102951.06;4986198;28;20037;-60
2022/07/17 07:20:51;;;;;;;5.25;1.08;;;;;;;18.96;62.00;102954.66;4986607;28;20022;-59
2022/07/17 07:23:16;;;;;;;4.57;1.10;;;;;;;19.00;62.11;102937.59;4985248;28;20022;-60
2022/07/17 07:25:44;;;;;;;3.03;1.20;;;;;;;19.08;60.86;102942.69;4985430;28;20022;-61
2022/07/17 07:28:09;;;;;;;5.20;1.25;;;;;;;19.22;60.90;102944.81;4986149;28;20041;-61
2022/07/17 07:30:35;;;;;;;6.80;1.33;;;;;;;19.33;60.49;102945.31;4985785;28;20105;-61
2022/07/17 07:33:00;;;;;;;3.38;1.20;;;;;;;19.30;60.03;102943.59;4985736;28;20602;-61
2022/07/17 07:35:26;;;;;;;3.83;1.40;;;;;;;19.40;59.59;102944.16;4985982;28;20050;-62
2022/07/17 07:37:51;;;;;;;5.82;1.30;;;;;;;19.28;59.59;102940.16;4985018;28;20397;-64
2022/07/17 07:40:16;;;;;;;3.35;1.08;;;;;;;19.49;58.87;102926.00;4985331;28;20038;-60
2022/07/17 07:42:42;;;;;;;5.57;1.55;;;;;;;19.40;59.82;102941.47;4985927;28;20114;-61
2022/07/17 07:45:08;;;;;;;7.93;1.40;;;;;;;19.62;59.22;102932.63;4984193;28;20037;-64
2022/07/17 07:47:43;;;;;;;6.78;1.30;;;;;;;19.74;59.20;102928.59;4985652;28;20030;-61
2022/07/17 07:50:08;;;;;;;4.90;1.40;;;;;;;19.94;59.24;102927.78;4982267;28;20109;-62
2022/07/17 07:52:34;;;;;;;2.28;1.13;;;;;;;20.00;59.26;102931.13;4984975;28;20133;-61
2022/07/17 07:54:59;;;;;;;3.78;1.20;;;;;;;19.92;58.49;102924.31;4982704;28;20033;-60
2022/07/17 07:57:24;;;;;;;7.47;1.50;;;;;;;20.02;58.36;102927.50;4984607;28;20022;-61
2022/07/17 07:59:50;;;;;;;5.45;1.60;;;;;;;20.27;57.09;102928.28;4984982;28;20076;-61
2022/07/17 08:02:15;;;;;;;5.28;2.03;;;;;;;20.51;56.28;102930.84;4984358;28;20050;-61
2022/07/17 08:04:40;;;;;;;4.13;1.23;;;;;;;20.33;54.76;102925.34;4984495;28;20022;-61
2022/07/17 08:07:06;;;;;;;2.03;1.00;;;;;;;20.01;55.92;102928.44;4985577;28;20061;-61
2022/07/17 08:09:31;;;;;;;3.42;1.10;;;;;;;20.18;55.24;102925.06;4983523;28;20477;-63
2022/07/17 08:11:57;;;;;;;4.55;1.30;;;;;;;20.45;55.95;102926.63;4984386;28;20027;-61
2022/07/17 08:14:22;;;;;;;4.57;1.20;;;;;;;20.54;55.80;102928.03;4984452;28;20489;-64
2022/07/17 08:16:47;;;;;;;3.75;1.20;;;;;;;20.34;55.67;102924.41;4984809;28;20034;-61
2022/07/17 08:19:12;;;;;;;5.03;1.52;;;;;;;20.60;54.88;102919.75;4983226;28;20026;-62
2022/07/17 08:21:38;;;;;;;1.90;1.00;;;;;;;20.70;54.82;102914.84;4984565;28;20105;-61
2022/07/17 08:24:04;;;;;;;5.18;1.27;;;;;;;20.66;55.28;102907.88;4983832;28;20073;-62
2022/07/17 08:26:29;;;;;;;4.22;1.25;;;;;;;20.96;54.32;102913.69;4983380;28;20033;-61
2022/07/17 08:28:54;;;;;;;3.80;1.30;;;;;;;21.15;53.77;102909.31;4984409;28;20014;-63
2022/07/17 08:31:20;;;;;;;4.68;1.10;;;;;;;21.12;53.36;102912.13;4984034;28;20500;-62
2022/07/17 08:33:45;;;;;;;2.20;1.10;;;;;;;21.04;53.27;102916.03;4984419;28;20025;-62
2022/07/17 08:36:11;;;;;;;3.58;1.50;;;;;;;21.03;52.43;102911.63;4983990;28;20346;-61
2022/07/17 08:38:36;;;;;;;5.50;1.48;;;;;;;21.10;52.99;102897.94;4984055;28;20033;-62
2022/07/17 08:41:01;;;;;;;4.18;0.93;;;;;;;21.36;52.91;102899.41;4984316;28;20104;-62
2022/07/17 08:43:27;;;;;;;3.17;1.27;;;;;;;21.34;52.46;102904.84;4983743;28;20358;-62
2022/07/17 08:45:52;;;;;;;5.13;1.30;;;;;;;21.11;52.79;102903.25;4986628;28;20062;-62
2022/07/17 08:48:18;;;;;;;2.97;1.23;;;;;;;21.34;51.82;102906.63;4986578;28;20047;-61
2022/07/17 08:50:45;;;;;;;2.85;1.20;;;;;;;21.41;50.84;102904.53;4988120;28;20034;-63
2022/07/17 08:53:10;;;;;;;3.70;1.60;;;;;;;21.52;50.80;102906.72;4984738;28;20022;-63
2022/07/17 08:55:36;;;;;;;2.72;1.25;;;;;;;21.52;49.08;102906.72;4987665;28;20326;-62
2022/07/17 08:58:02;;;;;;;3.88;1.35;;;;;;;21.52;48.67;102907.56;4986558;28;20065;-62
2022/07/17 09:00:28;;;;;;;6.32;1.60;;;;;;;21.67;48.07;102916.69;4987565;28;20066;-62
2022/07/17 09:03:06;;;;;;;2.03;1.10;;;;;;;21.70;47.88;102911.19;4979001;28;20070;-62
2022/07/17 09:05:37;;;;;;;5.18;1.33;;;;;;;21.73;48.57;102907.47;4968461;28;20420;-61
2022/07/17 09:08:04;;;;;;;3.88;1.23;;;;;;;21.75;49.42;102902.03;4968766;28;20026;-61
2022/07/17 09:10:31;;;;;;;3.15;1.35;;;;;;;21.83;49.23;102911.47;4968662;28;20034;-63
2022/07/17 09:12:56;;;;;;;1.70;1.08;;;;;;;21.98;48.89;102914.38;4975915;28;20101;-62
2022/07/17 09:15:21;;;;;;;3.13;1.30;;;;;;;22.09;48.00;102917.38;4986035;28;20429;-63
2022/07/17 09:17:51;;;;;;;4.55;1.30;;;;;;;22.08;47.90;102909.41;4987472;28;20069;-62
2022/07/17 09:20:20;;;;;;;5.20;1.30;;;;;;;22.10;47.81;102912.88;4988689;28;20126;-62
2022/07/17 09:22:56;;;;;;;3.80;1.20;;;;;;;21.90;48.56;102906.69;4987307;28;20023;-63
2022/07/17 09:25:31;;;;;;;4.60;1.70;;;;;;;21.76;48.86;102914.56;4987928;28;20062;-62
2022/07/17 09:27:57;;;;;;;2.35;1.23;;;;;;;21.95;47.98;102915.38;4986644;28;20037;-62
2022/07/17 09:30:22;;;;;;;1.88;1.08;;;;;;;22.31;48.68;102915.41;4988154;28;20030;-61
2022/07/17 09:32:50;;;;;;;4.57;1.40;;;;;;;22.39;48.06;102915.88;4986901;28;20026;-63
2022/07/17 09:35:16;;;;;;;2.70;1.23;;;;;;;22.33;47.65;102914.38;4987121;28;20113;-63
2022/07/17 09:37:41;;;;;;;1.92;1.20;;;;;;;22.58;47.14;102914.97;4987521;28;20030;-62
2022/07/17 09:41:09;;;;;;;1.83;1.33;;;;;;;22.83;46.43;102908.28;4988480;28;20363;-62
2022/07/17 09:42:56;;;;;;;2.75;1.20;;;;;;;22.92;45.89;102902.41;4986034;28;20129;-63
2022/07/17 09:45:22;;;;;;;3.33;1.38;;;;;;;22.98;45.89;102898.53;4986919;28;20114;-64
2022/07/17 09:47:48;;;;;;;5.20;1.40;;;;;;;22.72;47.12;102898.09;4986464;28;20029;-61
2022/07/17 09:50:13;;;;;;;4.00;1.20;;;;;;;22.78;47.45;102900.47;4987598;28;20058;-63
2022/07/17 09:52:39;;;;;;;3.85;1.30;;;;;;;23.15;46.27;102902.94;4986183;28;20066;-62
2022/07/17 09:55:05;;;;;;;2.08;1.10;;;;;;;23.45;46.84;102902.22;4986807;28;20014;-63
2022/07/17 09:57:32;;;;;;;3.53;1.00;;;;;;;23.42;46.66;102897.03;4986183;28;20035;-62
2022/07/17 10:00:01;;;;;;;1.88;1.20;;;;;;;23.55;46.48;102890.94;4986756;28;20484;-62
2022/07/17 10:02:26;;;;;;;2.47;1.05;;;;;;;23.73;45.20;102894.41;4986349;28;20118;-62
2022/07/17 10:04:52;;;;;;;3.60;1.20;;;;;;;23.83;45.56;102892.03;4987672;28;20039;-64
2022/07/17 10:07:18;;;;;;;2.28;1.30;;;;;;;23.54;44.64;102894.59;4986684;28;20092;-64
2022/07/17 10:09:44;;;;;;;2.45;1.17;;;;;;;23.62;44.51;102892.34;4987393;28;20026;-63
2022/07/17 10:12:10;;;;;;;3.17;1.30;;;;;;;23.80;44.61;102894.91;4986462;28;20022;-63
2022/07/17 10:14:38;;;;;;;4.68;1.65;;;;;;;23.77;44.27;102901.34;4985515;28;20030;-62
2022/07/17 10:17:13;;;;;;;3.33;1.35;;;;;;;24.01;45.22;102902.69;4984586;28;20466;-62
2022/07/17 10:19:50;;;;;;;5.10;1.27;;;;;;;24.25;45.45;102904.91;4983242;28;20473;-62
2022/07/17 10:22:16;;;;;;;3.08;1.25;;;;;;;24.33;43.94;102910.72;4981111;28;20030;-62
2022/07/17 10:24:46;;;;;;;3.20;1.17;;;;;;;24.39;43.61;102902.25;4986925;28;20048;-62
2022/07/17 10:27:26;;;;;;;2.95;1.30;;;;;;;24.27;44.42;102903.88;4986179;28;20026;-64
2022/07/17 10:30:05;;;;;;;3.00;1.17;;;;;;;24.52;43.38;102912.28;4987342;28;20453;-63
2022/07/17 10:32:31;;;;;;;2.17;1.23;;;;;;;24.25;43.26;102910.28;4983908;28;20018;-63
2022/07/17 10:35:02;;;;;;;2.67;1.27;;;;;;;24.12;43.17;102913.69;4986646;28;20053;-64
2022/07/17 10:37:32;;;;;;;2.47;1.40;;;;;;;24.38;41.47;102908.59;4974969;28;20034;-63
2022/07/17 10:39:58;;;;;;;3.75;1.65;;;;;;;24.40;41.90;102912.06;4966151;28;20051;-64
2022/07/17 10:42:44;;;;;;;3.33;1.30;;;;;;;24.59;42.68;102913.66;4965968;28;20030;-64
2022/07/17 10:45:16;;;;;;;5.78;1.50;;;;;;;24.51;42.09;102914.13;4965381;28;20421;-65
2022/07/17 10:47:45;;;;;;;2.33;1.20;;;;;;;24.62;41.03;102908.06;4966948;28;20085;-65
2022/07/17 10:50:11;;;;;;;3.88;1.30;;;;;;;24.58;40.87;102917.28;4966685;28;20023;-64
2022/07/17 10:52:37;;;;;;;4.22;1.70;;;;;;;24.54;40.70;102919.31;4968819;28;20033;-64
2022/07/17 10:55:05;;;;;;;3.08;1.50;;;;;;;24.73;40.86;102919.06;4985778;28;20512;-64
2022/07/17 10:57:32;;;;;;;2.05;1.25;;;;;;;24.93;40.65;102921.50;4985333;28;20026;-64
2022/07/17 10:59:57;;;;;;;3.10;1.10;;;;;;;24.89;40.27;102911.88;4985408;28;20058;-65
2022/07/17 11:02:29;;;;;;;4.25;1.70;;;;;;;25.19;39.58;102913.59;4983308;28;20054;-66
2022/07/17 11:05:05;;;;;;;2.42;1.33;;;;;;;25.23;40.79;102907.88;4985304;28;20034;-63
2022/07/17 11:07:30;;;;;;;1.95;1.25;;;;;;;25.07;42.36;102907.16;4968001;28;20390;-64
2022/07/17 11:09:55;;;;;;;2.53;1.30;;;;;;;25.46;40.94;102908.22;4985940;28;20041;-64
2022/07/17 11:12:32;;;;;;;2.80;1.50;;;;;;;25.74;40.77;102914.53;4985099;28;20042;-63
2022/07/17 11:15:02;;;;;;;3.58;1.60;;;;;;;25.50;41.72;102917.00;4985153;28;20291;-65
2022/07/17 11:17:27;;;;;;;3.70;1.30;;;;;;;25.33;40.60;102915.38;4984460;28;20508;-63
2022/07/17 11:19:53;;;;;;;3.88;1.80;;;;;;;25.41;41.49;102904.97;4986111;28;20030;-63